Time;durP1;ratioP1;P1;durP2;ratioP2;P2;SDS_P1;SDS_P2;PMS_P1;PMS_P2;Temp;Humidity;BMP_temperature;BMP_pressure;BME280_temperature;BME280_humidity;BME280_pressure;Samples;Min_cycle;Max_cycle;Signal;HPM_P1;HPM_P2
2023/05/14 00:01:58;;;;;;;8.77;5.53;;;;;;;;;;5086820;28;20028;-76
2023/05/14 00:04:23;;;;;;;5.50;4.55;;;;;;;;;;5071455;28;20028;-75
2023/05/14 00:06:49;;;;;;;7.55;5.32;;;;;;;;;;5086437;28;20507;-76
2023/05/14 00:09:15;;;;;;;10.02;5.55;;;;;;;;;;5070953;28;20028;-76
2023/05/14 00:11:40;;;;;;;7.85;5.97;;;;;;;;;;5052955;28;20443;-75
2023/05/14 00:14:08;;;;;;;9.73;5.47;;;;;;;;;;5071030;28;20484;-75
2023/05/14 00:16:34;;;;;;;7.18;5.47;;;;;;;;;;5086847;28;20032;-76
2023/05/14 00:18:59;;;;;;;8.85;5.65;;;;;;;;;;5071220;28;20027;-76
2023/05/14 00:21:25;;;;;;;7.93;5.97;;;;;;;;;;5053966;28;20048;-77
2023/05/14 00:23:51;;;;;;;7.85;5.43;;;;;;;;;;5052620;28;20048;-75
2023/05/14 00:26:16;;;;;;;9.70;6.25;;;;;;;;;;5086163;28;20063;-76
2023/05/14 00:28:42;;;;;;;6.45;5.47;;;;;;;;;;5052907;28;20059;-77
2023/05/14 00:31:07;;;;;;;7.93;6.03;;;;;;;;;;5071059;28;20029;-77
2023/05/14 00:33:33;;;;;;;7.03;5.15;;;;;;;;;;5070734;28;20056;-77
2023/05/14 00:35:59;;;;;;;9.57;6.50;;;;;;;;;;5052803;28;20020;-78
2023/05/14 00:38:27;;;;;;;7.63;5.80;;;;;;;;;;5052704;28;20020;-75
2023/05/14 00:40:53;;;;;;;8.90;6.03;;;;;;;;;;5070794;28;20054;-77
2023/05/14 00:43:19;;;;;;;12.60;6.60;;;;;;;;;;5052582;28;20081;-77
2023/05/14 00:45:46;;;;;;;8.75;6.45;;;;;;;;;;5070693;28;20025;-74
2023/05/14 00:48:12;;;;;;;9.43;6.45;;;;;;;;;;5036334;28;20055;-76
2023/05/14 00:50:38;;;;;;;8.50;6.53;;;;;;;;;;5052563;28;20107;-75
2023/05/14 00:53:08;;;;;;;8.93;5.78;;;;;;;;;;5052708;28;20035;-76
2023/05/14 00:55:35;;;;;;;10.70;6.63;;;;;;;;;;5052508;28;20024;-78
2023/05/14 00:58:04;;;;;;;6.85;5.68;;;;;;;;;;5052486;28;20040;-76
2023/05/14 01:00:29;;;;;;;8.18;5.78;;;;;;;;;;5052554;28;20430;-76
2023/05/14 01:02:55;;;;;;;9.55;6.25;;;;;;;;;;5070797;28;20115;-76
2023/05/14 01:05:24;;;;;;;9.52;5.82;;;;;;;;;;5052475;28;20025;-77
2023/05/14 01:08:26;;;;;;;8.98;6.20;;;;;;;;;;5052533;28;20024;-75
2023/05/14 01:11:05;;;;;;;7.57;6.20;;;;;;;;;;5039908;28;20058;-75
2023/05/14 01:13:57;;;;;;;8.05;6.38;;;;;;;;;;5056495;28;20020;-76
2023/05/14 01:16:26;;;;;;;8.27;6.03;;;;;;;;;;5056529;28;20101;-75
2023/05/14 01:18:54;;;;;;;7.60;6.13;;;;;;;;;;5090024;28;20016;-75
2023/05/14 01:21:42;;;;;;;9.18;6.05;;;;;;;;;;5089312;28;20036;-76
2023/05/14 01:24:08;;;;;;;8.27;6.05;;;;;;;;;;5055977;28;20028;-74
2023/05/14 01:26:35;;;;;;;8.77;7.45;;;;;;;;;;5074256;28;20052;-76
2023/05/14 01:29:20;;;;;;;8.38;6.25;;;;;;;;;;5056075;28;20029;-77
2023/05/14 01:31:47;;;;;;;8.35;6.25;;;;;;;;;;5088941;28;20031;-76
2023/05/14 01:34:14;;;;;;;7.35;6.00;;;;;;;;;;5089273;28;20432;-76
2023/05/14 01:36:41;;;;;;;9.10;5.72;;;;;;;;;;5055322;28;20020;-76
2023/05/14 01:39:08;;;;;;;9.40;7.00;;;;;;;;;;5089053;28;20027;-76
2023/05/14 01:41:36;;;;;;;8.07;6.05;;;;;;;;;;5056062;28;20024;-75
2023/05/14 01:44:02;;;;;;;9.32;6.18;;;;;;;;;;5055241;28;20033;-74
2023/05/14 01:46:31;;;;;;;9.55;7.00;;;;;;;;;;5055179;28;20476;-75
2023/05/14 01:48:57;;;;;;;7.43;6.05;;;;;;;;;;5072208;28;20075;-76
2023/05/14 01:51:23;;;;;;;8.15;6.35;;;;;;;;;;5055886;28;20052;-74
2023/05/14 01:53:48;;;;;;;9.25;6.38;;;;;;;;;;5054798;28;20021;-77
2023/05/14 01:56:14;;;;;;;11.30;6.78;;;;;;;;;;5054896;28;20048;-75
2023/05/14 01:58:39;;;;;;;10.15;6.63;;;;;;;;;;5055261;28;20376;-76
2023/05/14 02:01:05;;;;;;;10.68;6.43;;;;;;;;;;5055249;28;20060;-75
2023/05/14 02:03:31;;;;;;;9.15;6.80;;;;;;;;;;5073328;28;20028;-75
2023/05/14 02:05:56;;;;;;;8.30;6.45;;;;;;;;;;5073314;28;20033;-75
2023/05/14 02:08:22;;;;;;;10.32;6.80;;;;;;;;;;5073205;28;20119;-77
2023/05/14 02:10:47;;;;;;;9.13;7.05;;;;;;;;;;5072844;28;20028;-74
2023/05/14 02:13:13;;;;;;;8.90;7.43;;;;;;;;;;5073476;28;20047;-76
2023/05/14 02:15:38;;;;;;;9.27;6.65;;;;;;;;;;5073083;28;20032;-78
2023/05/14 02:18:04;;;;;;;8.27;6.25;;;;;;;;;;5055263;28;20146;-75
2023/05/14 02:20:30;;;;;;;8.02;6.82;;;;;;;;;;5072745;28;20090;-75
2023/05/14 02:22:55;;;;;;;10.82;6.72;;;;;;;;;;5038086;28;20040;-75
2023/05/14 02:25:21;;;;;;;12.55;7.63;;;;;;;;;;5055044;28;20060;-76
2023/05/14 02:27:47;;;;;;;11.38;7.00;;;;;;;;;;5054690;28;20025;-76
2023/05/14 02:30:12;;;;;;;13.90;6.85;;;;;;;;;;5054840;28;20377;-76
2023/05/14 02:32:38;;;;;;;9.50;6.68;;;;;;;;;;5072589;28;20419;-74
2023/05/14 02:35:04;;;;;;;7.65;6.13;;;;;;;;;;5072706;28;20387;-75
2023/05/14 02:37:30;;;;;;;12.38;7.63;;;;;;;;;;5072569;28;20039;-76
2023/05/14 02:39:55;;;;;;;11.95;7.97;;;;;;;;;;5054412;28;20503;-75
2023/05/14 02:42:21;;;;;;;9.65;6.88;;;;;;;;;;5072922;28;20025;-76
2023/05/14 02:44:47;;;;;;;10.55;6.95;;;;;;;;;;5054555;28;20035;-76
2023/05/14 02:47:12;;;;;;;9.27;6.45;;;;;;;;;;5054273;28;20130;-75
2023/05/14 02:49:39;;;;;;;10.43;7.18;;;;;;;;;;5054679;28;20111;-76
2023/05/14 02:52:04;;;;;;;17.10;7.75;;;;;;;;;;5054190;28;20024;-77
2023/05/14 02:54:30;;;;;;;9.52;6.88;;;;;;;;;;5054844;28;20050;-75
2023/05/14 02:56:57;;;;;;;15.50;7.68;;;;;;;;;;5050902;28;20052;-75
2023/05/14 02:59:23;;;;;;;9.82;6.93;;;;;;;;;;5052477;28;20469;-76
2023/05/14 03:01:49;;;;;;;9.75;6.55;;;;;;;;;;5050988;28;20120;-77
2023/05/14 03:04:15;;;;;;;8.80;7.05;;;;;;;;;;5052376;28;20099;-76
2023/05/14 03:06:40;;;;;;;10.02;6.90;;;;;;;;;;5050917;28;20055;-77
2023/05/14 03:09:06;;;;;;;12.68;7.72;;;;;;;;;;5050711;28;20028;-76
2023/05/14 03:11:32;;;;;;;9.32;6.70;;;;;;;;;;5034421;28;20021;-76
2023/05/14 03:13:58;;;;;;;9.05;6.68;;;;;;;;;;5051885;28;20562;-75
2023/05/14 03:16:23;;;;;;;10.00;6.80;;;;;;;;;;5052500;28;20059;-75
2023/05/14 03:18:49;;;;;;;10.10;7.50;;;;;;;;;;5050443;28;20021;-76
2023/05/14 03:21:15;;;;;;;11.43;7.45;;;;;;;;;;5052164;28;20028;-76
2023/05/14 03:23:40;;;;;;;12.10;8.10;;;;;;;;;;5050959;28;20036;-76
2023/05/14 03:26:07;;;;;;;10.30;7.72;;;;;;;;;;5050702;28;20040;-75
2023/05/14 03:28:32;;;;;;;13.65;8.35;;;;;;;;;;5050751;28;20475;-77
2023/05/14 03:30:58;;;;;;;11.90;7.82;;;;;;;;;;5050555;28;20147;-76
2023/05/14 03:33:24;;;;;;;10.90;8.25;;;;;;;;;;5049977;28;20029;-76
2023/05/14 03:35:50;;;;;;;11.20;7.68;;;;;;;;;;5052078;28;20111;-76
2023/05/14 03:38:16;;;;;;;11.38;8.07;;;;;;;;;;5052327;28;20037;-76
2023/05/14 03:40:43;;;;;;;11.35;8.77;;;;;;;;;;5050203;28;20017;-77
2023/05/14 03:43:08;;;;;;;11.65;8.27;;;;;;;;;;5050329;28;20082;-75
2023/05/14 03:45:34;;;;;;;12.88;8.18;;;;;;;;;;5050314;28;20029;-76
2023/05/14 03:47:59;;;;;;;11.70;7.47;;;;;;;;;;5051188;28;20025;-76
2023/05/14 03:50:25;;;;;;;12.45;8.35;;;;;;;;;;5050072;28;20032;-76
2023/05/14 03:52:51;;;;;;;10.68;7.72;;;;;;;;;;5051092;28;20743;-77
2023/05/14 03:55:22;;;;;;;10.75;7.93;;;;;;;;;;5050053;28;20032;-76
2023/05/14 03:57:48;;;;;;;12.32;8.98;;;;;;;;;;5049857;28;20094;-76
2023/05/14 04:00:14;;;;;;;14.80;8.00;;;;;;;;;;5050216;28;20029;-76
2023/05/14 04:02:40;;;;;;;14.13;8.15;;;;;;;;;;5050081;28;20024;-76
2023/05/14 04:05:05;;;;;;;12.55;8.55;;;;;;;;;;5049625;28;20064;-76
2023/05/14 04:07:31;;;;;;;9.90;7.25;;;;;;;;;;5049872;28;20040;-78
2023/05/14 04:09:57;;;;;;;12.27;8.15;;;;;;;;;;5051323;28;20480;-76
2023/05/14 04:12:22;;;;;;;11.00;7.72;;;;;;;;;;5050005;28;20112;-77
2023/05/14 04:14:48;;;;;;;14.05;8.40;;;;;;;;;;5051008;28;20029;-76
2023/05/14 04:17:13;;;;;;;12.55;9.15;;;;;;;;;;5033152;28;20248;-75
2023/05/14 04:19:40;;;;;;;12.50;8.52;;;;;;;;;;5051542;28;20017;-75
2023/05/14 04:22:06;;;;;;;15.32;8.23;;;;;;;;;;5051468;28;20039;-76
2023/05/14 04:24:31;;;;;;;13.77;7.78;;;;;;;;;;5051318;28;20032;-77
2023/05/14 04:26:57;;;;;;;13.77;8.73;;;;;;;;;;5049719;28;20053;-76
2023/05/14 04:29:23;;;;;;;11.35;8.15;;;;;;;;;;5049556;28;20071;-76
2023/05/14 04:31:49;;;;;;;12.55;8.40;;;;;;;;;;5051114;28;20075;-77
2023/05/14 04:34:14;;;;;;;11.40;8.00;;;;;;;;;;5033399;28;20121;-76
2023/05/14 04:36:41;;;;;;;13.10;8.20;;;;;;;;;;5051002;28;20017;-76
2023/05/14 04:39:08;;;;;;;15.32;8.13;;;;;;;;;;5050877;28;20384;-76
2023/05/14 04:41:34;;;;;;;13.25;8.57;;;;;;;;;;5050532;28;20055;-75
2023/05/14 04:44:00;;;;;;;15.32;8.82;;;;;;;;;;5049889;28;20029;-74
2023/05/14 04:46:27;;;;;;;14.45;8.93;;;;;;;;;;5053293;28;20112;-75
2023/05/14 04:48:52;;;;;;;12.45;8.20;;;;;;;;;;5054399;28;20039;-78
2023/05/14 04:51:18;;;;;;;18.42;11.13;;;;;;;;;;5054663;28;20032;-76
2023/05/14 04:53:44;;;;;;;14.07;9.25;;;;;;;;;;5054181;28;20028;-76
2023/05/14 04:56:09;;;;;;;11.82;8.27;;;;;;;;;;5058845;28;20074;-76
2023/05/14 04:58:35;;;;;;;14.38;8.15;;;;;;;;;;5074741;28;20372;-77
2023/05/14 05:01:01;;;;;;;11.95;9.00;;;;;;;;;;5056173;28;20434;-75
2023/05/14 05:03:27;;;;;;;11.38;8.43;;;;;;;;;;5056292;28;20047;-75
2023/05/14 05:05:53;;;;;;;14.75;9.45;;;;;;;;;;5074034;28;20468;-76
2023/05/14 05:08:19;;;;;;;11.55;9.32;;;;;;;;;;5073953;28;20047;-77
2023/05/14 05:10:45;;;;;;;16.17;9.65;;;;;;;;;;5056318;28;20029;-76
2023/05/14 05:13:10;;;;;;;12.25;8.43;;;;;;;;;;5056143;28;20025;-75
2023/05/14 05:15:36;;;;;;;12.57;9.00;;;;;;;;;;5056063;28;20036;-75
2023/05/14 05:18:02;;;;;;;14.52;8.98;;;;;;;;;;5055981;28;20028;-75
2023/05/14 05:20:28;;;;;;;15.48;9.40;;;;;;;;;;5075195;28;20023;-76
2023/05/14 05:22:53;;;;;;;13.63;8.18;;;;;;;;;;5055878;28;20135;-75
2023/05/14 05:25:19;;;;;;;13.25;8.43;;;;;;;;;;5055826;28;20029;-75
2023/05/14 05:27:45;;;;;;;19.48;9.48;;;;;;;;;;5056046;28;20024;-74
2023/05/14 05:30:11;;;;;;;19.10;10.02;;;;;;;;;;5055554;28;20035;-75
2023/05/14 05:32:36;;;;;;;13.15;9.07;;;;;;;;;;5074318;28;20039;-75
2023/05/14 05:35:02;;;;;;;15.68;10.15;;;;;;;;;;5073624;28;20024;-76
2023/05/14 05:37:29;;;;;;;14.43;9.63;;;;;;;;;;5056187;28;20031;-74
2023/05/14 05:39:55;;;;;;;15.50;9.77;;;;;;;;;;5055918;28;20484;-75
2023/05/14 05:42:21;;;;;;;14.65;9.52;;;;;;;;;;5055839;28;20032;-76
2023/05/14 05:44:47;;;;;;;15.98;10.20;;;;;;;;;;5055706;28;20373;-74
2023/05/14 05:47:12;;;;;;;12.23;9.77;;;;;;;;;;5055131;28;20039;-75
2023/05/14 05:49:38;;;;;;;13.07;9.93;;;;;;;;;;5055365;28;20495;-75
2023/05/14 05:52:04;;;;;;;12.40;8.82;;;;;;;;;;5073350;28;20024;-75
2023/05/14 05:54:31;;;;;;;11.70;9.20;;;;;;;;;;5073418;28;20537;-75
2023/05/14 05:56:57;;;;;;;15.77;9.10;;;;;;;;;;5054080;28;20114;-76
2023/05/14 05:59:23;;;;;;;11.50;9.27;;;;;;;;;;5055207;28;20032;-75
2023/05/14 06:01:49;;;;;;;15.57;9.70;;;;;;;;;;5055000;28;20472;-76
2023/05/14 06:04:15;;;;;;;14.18;10.23;;;;;;;;;;5054765;28;20094;-77
2023/05/14 06:06:40;;;;;;;12.90;9.85;;;;;;;;;;5055663;28;20028;-77
2023/05/14 06:09:07;;;;;;;14.93;9.93;;;;;;;;;;5055955;28;20040;-77
2023/05/14 06:11:33;;;;;;;15.02;10.55;;;;;;;;;;5055412;28;20036;-75
2023/05/14 06:13:59;;;;;;;12.48;9.32;;;;;;;;;;5073374;28;20033;-76
2023/05/14 06:16:25;;;;;;;16.25;9.43;;;;;;;;;;5055112;28;20036;-76
2023/05/14 06:18:54;;;;;;;15.52;9.65;;;;;;;;;;5073766;28;20025;-76
2023/05/14 06:21:20;;;;;;;13.52;9.23;;;;;;;;;;5055065;28;20024;-76
2023/05/14 06:23:46;;;;;;;12.52;9.02;;;;;;;;;;5054884;28;20142;-77
2023/05/14 06:26:12;;;;;;;13.52;9.77;;;;;;;;;;5055721;28;20038;-77
2023/05/14 06:28:37;;;;;;;14.27;10.00;;;;;;;;;;5054411;28;20039;-78
2023/05/14 06:31:03;;;;;;;15.45;10.27;;;;;;;;;;5073522;28;20260;-76
2023/05/14 06:33:30;;;;;;;15.15;10.10;;;;;;;;;;5055135;28;20422;-76
2023/05/14 06:36:05;;;;;;;12.95;9.88;;;;;;;;;;5054845;28;20039;-77
2023/05/14 06:38:31;;;;;;;13.93;9.60;;;;;;;;;;5073016;28;20043;-75
2023/05/14 06:40:56;;;;;;;13.95;9.27;;;;;;;;;;5054780;28;20040;-77
2023/05/14 06:43:22;;;;;;;14.23;9.75;;;;;;;;;;5054613;28;20074;-77
2023/05/14 06:45:49;;;;;;;14.57;11.65;;;;;;;;;;5038327;28;20033;-77
2023/05/14 06:48:17;;;;;;;14.93;10.77;;;;;;;;;;5054930;28;20032;-78
2023/05/14 06:50:43;;;;;;;15.25;10.55;;;;;;;;;;5054722;28;20020;-79
2023/05/14 06:53:09;;;;;;;16.40;10.60;;;;;;;;;;5054409;28;20044;-76
2023/05/14 06:55:35;;;;;;;13.60;9.18;;;;;;;;;;5054154;28;20063;-76
2023/05/14 06:58:01;;;;;;;12.95;9.40;;;;;;;;;;5053942;28;20075;-76
2023/05/14 07:00:27;;;;;;;12.90;9.20;;;;;;;;;;5053968;28;20403;-78
2023/05/14 07:02:52;;;;;;;13.68;9.35;;;;;;;;;;5072262;28;20460;-78
2023/05/14 07:05:18;;;;;;;12.07;9.60;;;;;;;;;;5072030;28;20043;-78
2023/05/14 07:07:44;;;;;;;17.05;9.32;;;;;;;;;;5071799;28;20028;-77
2023/05/14 07:10:10;;;;;;;11.90;9.65;;;;;;;;;;5054155;28;20420;-75
2023/05/14 07:12:36;;;;;;;10.27;9.10;;;;;;;;;;5072059;28;20032;-78
2023/05/14 07:15:03;;;;;;;12.18;9.45;;;;;;;;;;5071973;28;20067;-77
2023/05/14 07:17:28;;;;;;;14.25;9.98;;;;;;;;;;5072041;28;20400;-77
2023/05/14 07:19:57;;;;;;;16.27;9.27;;;;;;;;;;5053496;28;20024;-76
2023/05/14 07:22:22;;;;;;;14.40;9.73;;;;;;;;;;5071977;28;20456;-77
2023/05/14 07:24:49;;;;;;;14.23;8.68;;;;;;;;;;5054421;28;20028;-75
2023/05/14 07:27:15;;;;;;;12.05;9.10;;;;;;;;;;5053617;28;20107;-77
2023/05/14 07:29:43;;;;;;;12.88;10.07;;;;;;;;;;5054432;28;20066;-77
2023/05/14 07:32:09;;;;;;;19.98;14.45;;;;;;;;;;5072025;28;20056;-76
2023/05/14 07:34:35;;;;;;;12.57;8.82;;;;;;;;;;5054003;28;20130;-76
2023/05/14 07:37:01;;;;;;;14.82;9.63;;;;;;;;;;5053774;28;20123;-78
2023/05/14 07:39:26;;;;;;;9.90;8.75;;;;;;;;;;5071365;28;20437;-77
2023/05/14 07:41:53;;;;;;;15.23;10.23;;;;;;;;;;5053150;28;20388;-76
2023/05/14 07:44:20;;;;;;;11.57;7.30;;;;;;;;;;5053233;28;20032;-79
2023/05/14 07:46:46;;;;;;;10.43;7.97;;;;;;;;;;5053919;28;20028;-79
2023/05/14 07:49:11;;;;;;;8.35;7.25;;;;;;;;;;5053424;28;20032;-76
2023/05/14 07:51:37;;;;;;;9.27;7.43;;;;;;;;;;5071421;28;20111;-78
2023/05/14 07:54:03;;;;;;;13.15;8.70;;;;;;;;;;5053180;28;20455;-76
2023/05/14 07:56:29;;;;;;;13.27;8.88;;;;;;;;;;5053290;28;20052;-76
2023/05/14 07:58:56;;;;;;;11.32;8.07;;;;;;;;;;5071695;28;20035;-77
2023/05/14 08:01:22;;;;;;;12.73;7.88;;;;;;;;;;5052955;28;20039;-77
2023/05/14 08:03:47;;;;;;;10.85;5.97;;;;;;;;;;5071438;28;20028;-77
2023/05/14 08:06:13;;;;;;;10.13;4.70;;;;;;;;;;5071331;28;20054;-77
2023/05/14 08:08:39;;;;;;;7.90;4.78;;;;;;;;;;5053167;28;20032;-77
2023/05/14 08:11:05;;;;;;;5.47;4.70;;;;;;;;;;5053101;28;20039;-78
2023/05/14 08:13:31;;;;;;;7.60;5.20;;;;;;;;;;5052944;28;20064;-78
2023/05/14 08:15:56;;;;;;;8.07;6.75;;;;;;;;;;5052894;28;20185;-77
2023/05/14 08:18:22;;;;;;;10.90;7.45;;;;;;;;;;5052860;28;20078;-77
2023/05/14 08:20:47;;;;;;;15.57;8.50;;;;;;;;;;5074856;28;20043;-78
2023/05/14 08:23:13;;;;;;;7.05;5.90;;;;;;;;;;5057666;28;20423;-76
2023/05/14 08:25:39;;;;;;;7.88;5.28;;;;;;;;;;5056886;28;20369;-76
2023/05/14 08:28:04;;;;;;;6.82;5.22;;;;;;;;;;5056803;28;20028;-76
2023/05/14 08:30:30;;;;;;;6.70;5.68;;;;;;;;;;5075407;28;20025;-78
2023/05/14 08:32:57;;;;;;;5.63;4.20;;;;;;;;;;5057391;28;20028;-79
2023/05/14 08:35:23;;;;;;;6.05;4.32;;;;;;;;;;5075302;28;20468;-77
2023/05/14 08:37:49;;;;;;;7.90;4.45;;;;;;;;;;5057345;28;20093;-76
2023/05/14 08:40:15;;;;;;;5.50;4.25;;;;;;;;;;5057022;28;20440;-76
2023/05/14 08:42:43;;;;;;;5.38;4.32;;;;;;;;;;5057166;28;20437;-77
2023/05/14 08:45:19;;;;;;;7.40;4.45;;;;;;;;;;5075044;28;20395;-77
2023/05/14 08:47:50;;;;;;;5.75;4.25;;;;;;;;;;5057240;28;20028;-78
2023/05/14 08:50:17;;;;;;;6.45;5.00;;;;;;;;;;5074869;28;20024;-78
2023/05/14 08:52:43;;;;;;;5.88;4.47;;;;;;;;;;5040122;28;20043;-77
2023/05/14 08:55:10;;;;;;;6.85;4.78;;;;;;;;;;5056250;28;20111;-78
2023/05/14 08:57:36;;;;;;;6.32;4.97;;;;;;;;;;5056481;28;20055;-78
2023/05/14 09:00:07;;;;;;;7.72;4.07;;;;;;;;;;5074451;28;20111;-77
2023/05/14 09:02:33;;;;;;;8.20;4.57;;;;;;;;;;5056774;28;20060;-78
2023/05/14 09:05:00;;;;;;;6.80;4.35;;;;;;;;;;5074668;28;20048;-77
2023/05/14 09:07:26;;;;;;;6.50;4.38;;;;;;;;;;5039898;28;20037;-77
2023/05/14 09:09:52;;;;;;;5.78;4.45;;;;;;;;;;5074673;28;20025;-77
2023/05/14 09:12:18;;;;;;;4.97;4.45;;;;;;;;;;5074305;28;20024;-77
2023/05/14 09:14:45;;;;;;;6.22;4.60;;;;;;;;;;5074064;28;20020;-75
2023/05/14 09:17:11;;;;;;;7.20;4.03;;;;;;;;;;5074710;28;20029;-76
2023/05/14 09:19:42;;;;;;;6.28;4.78;;;;;;;;;;5074929;28;20487;-77
2023/05/14 09:22:10;;;;;;;5.05;4.55;;;;;;;;;;5056317;28;20020;-76
2023/05/14 09:24:37;;;;;;;7.18;4.53;;;;;;;;;;5074205;28;20029;-77
2023/05/14 09:27:04;;;;;;;14.15;7.15;;;;;;;;;;5073872;28;20126;-77
2023/05/14 09:29:30;;;;;;;6.47;4.40;;;;;;;;;;5055750;28;20024;-77
2023/05/14 09:31:58;;;;;;;5.25;4.13;;;;;;;;;;5054347;28;20024;-78
2023/05/14 09:34:24;;;;;;;6.22;4.55;;;;;;;;;;5073707;28;20357;-78
2023/05/14 09:36:57;;;;;;;6.95;4.07;;;;;;;;;;5056002;28;20529;-78
2023/05/14 09:39:25;;;;;;;5.68;4.28;;;;;;;;;;5055470;28;20051;-76
2023/05/14 09:41:51;;;;;;;5.03;3.53;;;;;;;;;;5038723;28;20480;-76
2023/05/14 09:44:17;;;;;;;5.70;3.50;;;;;;;;;;5055834;28;20547;-75
2023/05/14 09:46:45;;;;;;;5.78;3.95;;;;;;;;;;5055573;28;20027;-76
2023/05/14 09:49:11;;;;;;;5.13;3.92;;;;;;;;;;5055991;28;20492;-78
2023/05/14 09:51:37;;;;;;;4.53;3.80;;;;;;;;;;5074249;28;20066;-77
2023/05/14 09:54:06;;;;;;;5.57;3.50;;;;;;;;;;5055695;28;20039;-79
2023/05/14 09:56:35;;;;;;;5.03;3.35;;;;;;;;;;5052247;28;20080;-77
2023/05/14 09:59:01;;;;;;;6.30;3.38;;;;;;;;;;5035801;28;20028;-77
2023/05/14 10:01:31;;;;;;;3.35;2.80;;;;;;;;;;5068409;28;20032;-77
2023/05/14 10:03:57;;;;;;;3.60;2.70;;;;;;;;;;5053051;28;20455;-78
2023/05/14 10:06:35;;;;;;;4.38;2.88;;;;;;;;;;5051706;28;20021;-74
2023/05/14 10:09:03;;;;;;;5.78;3.15;;;;;;;;;;5068683;28;20094;-78
2023/05/14 10:11:32;;;;;;;3.58;2.50;;;;;;;;;;5053543;28;20455;-77
2023/05/14 10:14:03;;;;;;;3.80;2.80;;;;;;;;;;5053372;28;20031;-78
2023/05/14 10:16:40;;;;;;;2.53;2.15;;;;;;;;;;5068539;28;20028;-74
2023/05/14 10:19:14;;;;;;;5.75;2.50;;;;;;;;;;5068411;28;20450;-78
2023/05/14 10:21:43;;;;;;;5.28;3.10;;;;;;;;;;5052601;28;20100;-78
2023/05/14 10:24:10;;;;;;;4.43;2.70;;;;;;;;;;5067742;28;20033;-77
2023/05/14 10:26:38;;;;;;;3.22;2.60;;;;;;;;;;5051708;28;20108;-77
2023/05/14 10:29:11;;;;;;;3.67;2.90;;;;;;;;;;5051591;28;20029;-77
2023/05/14 10:31:55;;;;;;;5.03;3.53;;;;;;;;;;5052488;28;20029;-78
2023/05/14 10:34:45;;;;;;;5.10;2.55;;;;;;;;;;5051191;28;20029;-77
2023/05/14 10:37:12;;;;;;;5.90;2.88;;;;;;;;;;5052188;28;20032;-74
2023/05/14 10:40:04;;;;;;;3.47;3.08;;;;;;;;;;5067490;28;20021;-78
2023/05/14 10:42:38;;;;;;;4.00;2.65;;;;;;;;;;5067688;28;20124;-76
2023/05/14 10:45:09;;;;;;;5.25;4.20;;;;;;;;;;5051979;28;20074;-76
2023/05/14 10:47:41;;;;;;;4.28;2.85;;;;;;;;;;5052236;28;20033;-77
2023/05/14 10:50:09;;;;;;;7.07;3.13;;;;;;;;;;5052075;28;20051;-78
2023/05/14 10:52:36;;;;;;;4.25;3.35;;;;;;;;;;5052049;28;20021;-78
2023/05/14 10:55:07;;;;;;;3.50;3.20;;;;;;;;;;5052098;28;20028;-76
2023/05/14 10:57:35;;;;;;;5.57;2.80;;;;;;;;;;5080241;28;20049;-76
2023/05/14 11:00:01;;;;;;;5.45;2.83;;;;;;;;;;5083942;28;20025;-77
2023/05/14 11:02:33;;;;;;;4.10;2.72;;;;;;;;;;5052399;28;20086;-77
2023/05/14 11:05:04;;;;;;;4.68;2.97;;;;;;;;;;5084254;28;20435;-78
2023/05/14 11:07:29;;;;;;;8.05;3.80;;;;;;;;;;5051785;28;20029;-79
2023/05/14 11:10:07;;;;;;;5.70;3.17;;;;;;;;;;5084069;28;20052;-78
2023/05/14 11:12:37;;;;;;;5.40;3.05;;;;;;;;;;5084000;28;20029;-78
2023/05/14 11:15:06;;;;;;;7.30;3.33;;;;;;;;;;5051965;28;20086;-79
2023/05/14 11:17:31;;;;;;;3.55;3.10;;;;;;;;;;5050356;28;20056;-77
2023/05/14 11:20:00;;;;;;;3.30;2.70;;;;;;;;;;5052123;28;20045;-78
2023/05/14 11:22:27;;;;;;;3.65;3.05;;;;;;;;;;5050470;28;20115;-77
2023/05/14 11:24:52;;;;;;;4.25;2.63;;;;;;;;;;5051850;28;20140;-78
2023/05/14 11:27:20;;;;;;;4.70;2.60;;;;;;;;;;5051625;28;20467;-77
2023/05/14 11:30:01;;;;;;;2.65;2.45;;;;;;;;;;5052078;28;20329;-78
2023/05/14 11:32:27;;;;;;;;;;;;;;;;;;5051446;28;20116;-77
2023/05/14 11:34:52;;;;;;;7.00;2.97;;;;;;;;;;5049510;28;20007;-78
2023/05/14 11:37:18;;;;;;;2.83;2.35;;;;;;;;;;5050947;28;20071;-77
2023/05/14 11:39:52;;;;;;;3.45;2.50;;;;;;;;;;5083355;28;20028;-75
2023/05/14 11:42:18;;;;;;;2.92;2.65;;;;;;;;;;5050880;28;20036;-77
2023/05/14 11:44:51;;;;;;;3.85;2.50;;;;;;;;;;5051042;28;20408;-81
2023/05/14 11:47:18;;;;;;;3.20;2.53;;;;;;;;;;5050787;28;20071;-79
2023/05/14 11:49:44;;;;;;;3.10;2.58;;;;;;;;;;5082894;28;20025;-76
2023/05/14 11:52:12;;;;;;;3.70;2.30;;;;;;;;;;5050701;28;20025;-77
2023/05/14 11:54:39;;;;;;;2.60;2.40;;;;;;;;;;5050276;28;20020;-77
2023/05/14 11:57:10;;;;;;;4.22;3.17;;;;;;;;;;5083098;28;20432;-78
2023/05/14 11:59:36;;;;;;;3.00;2.70;;;;;;;;;;5082634;28;20094;-75
2023/05/14 12:02:06;;;;;;;3.50;3.20;;;;;;;;;;5082895;28;20029;-78
2023/05/14 12:04:31;;;;;;;4.10;2.50;;;;;;;;;;5049407;28;20496;-79
2023/05/14 12:06:59;;;;;;;3.10;2.15;;;;;;;;;;5083225;28;20063;-78
2023/05/14 12:09:25;;;;;;;2.92;2.20;;;;;;;;;;5050856;28;20120;-78
2023/05/14 12:11:51;;;;;;;3.70;2.63;;;;;;;;;;5032485;28;20025;-76
2023/05/14 12:14:23;;;;;;;4.03;2.00;;;;;;;;;;5082712;28;20051;-77
2023/05/14 12:16:50;;;;;;;2.95;2.33;;;;;;;;;;5082822;28;20031;-77
2023/05/14 12:19:20;;;;;;;2.95;2.00;;;;;;;;;;5050664;28;20017;-76
2023/05/14 12:21:47;;;;;;;4.95;2.35;;;;;;;;;;5050471;28;20500;-78
2023/05/14 12:24:14;;;;;;;3.80;2.22;;;;;;;;;;5082511;28;20036;-79
2023/05/14 12:26:45;;;;;;;3.22;2.50;;;;;;;;;;5048907;28;20381;-79
2023/05/14 12:29:13;;;;;;;4.85;2.50;;;;;;;;;;5050357;28;20107;-79
2023/05/14 12:31:45;;;;;;;5.50;2.00;;;;;;;;;;5082932;28;20345;-80
2023/05/14 12:34:11;;;;;;;4.28;1.70;;;;;;;;;;5050868;28;20477;-78
2023/05/14 12:36:37;;;;;;;3.53;1.92;;;;;;;;;;5032583;28;20120;-76
2023/05/14 12:39:04;;;;;;;6.43;4.40;;;;;;;;;;5083186;28;20025;-77
2023/05/14 12:41:31;;;;;;;10.80;7.55;;;;;;;;;;5050625;28;20017;-79
2023/05/14 12:43:58;;;;;;;2.78;1.70;;;;;;;;;;5050520;28;20040;-78
2023/05/14 12:46:25;;;;;;;1.85;1.70;;;;;;;;;;5049230;28;20051;-79
2023/05/14 12:48:50;;;;;;;2.67;1.70;;;;;;;;;;5050411;28;20028;-80
2023/05/14 12:51:16;;;;;;;4.22;1.70;;;;;;;;;;5082400;28;20036;-77
2023/05/14 12:53:42;;;;;;;5.93;2.75;;;;;;;;;;5050430;28;20040;-76
2023/05/14 12:56:07;;;;;;;1.85;1.63;;;;;;;;;;5053988;28;20380;-77
2023/05/14 12:58:33;;;;;;;6.82;6.10;;;;;;;;;;5085396;28;20261;-77
2023/05/14 13:00:58;;;;;;;4.63;1.85;;;;;;;;;;5069866;28;20028;-77
2023/05/14 13:03:25;;;;;;;2.85;1.52;;;;;;;;;;5069494;28;20035;-78
2023/05/14 13:05:52;;;;;;;4.32;1.63;;;;;;;;;;5087341;28;20025;-76
2023/05/14 13:08:20;;;;;;;3.15;1.45;;;;;;;;;;5055226;28;20082;-76
2023/05/14 13:10:46;;;;;;;1.90;1.40;;;;;;;;;;5055530;28;20086;-77
2023/05/14 13:13:14;;;;;;;5.20;2.42;;;;;;;;;;5073572;28;20063;-77
2023/05/14 13:15:40;;;;;;;1.95;1.75;;;;;;;;;;5055712;28;20503;-77
2023/05/14 13:18:05;;;;;;;2.00;1.55;;;;;;;;;;5055928;28;20028;-78
2023/05/14 13:20:32;;;;;;;4.40;1.80;;;;;;;;;;5073451;28;20479;-77
2023/05/14 13:22:58;;;;;;;3.15;1.63;;;;;;;;;;5055757;28;20540;-77
2023/05/14 13:25:23;;;;;;;1.90;1.50;;;;;;;;;;5055724;28;20028;-78
2023/05/14 13:27:52;;;;;;;4.43;1.52;;;;;;;;;;5055428;28;20123;-77
2023/05/14 13:30:17;;;;;;;5.45;1.92;;;;;;;;;;5055401;28;20382;-80
2023/05/14 13:32:43;;;;;;;1.92;1.70;;;;;;;;;;5055514;28;20024;-78
2023/05/14 13:35:09;;;;;;;3.08;1.58;;;;;;;;;;5055896;28;20038;-77
2023/05/14 13:37:35;;;;;;;2.88;1.92;;;;;;;;;;5072795;28;20035;-77
2023/05/14 13:40:03;;;;;;;2.92;1.92;;;;;;;;;;5073409;28;20024;-77
2023/05/14 13:42:29;;;;;;;3.60;2.30;;;;;;;;;;5072613;28;20070;-78
2023/05/14 13:44:56;;;;;;;3.70;1.83;;;;;;;;;;5072803;28;20471;-77
2023/05/14 13:47:21;;;;;;;4.97;2.10;;;;;;;;;;5055184;28;20111;-78
2023/05/14 13:49:47;;;;;;;4.53;3.47;;;;;;;;;;5088289;28;20128;-78
2023/05/14 13:52:14;;;;;;;2.40;2.20;;;;;;;;;;5054894;28;20527;-79
2023/05/14 13:54:39;;;;;;;2.35;1.92;;;;;;;;;;5072942;28;20173;-82
2023/05/14 13:57:05;;;;;;;3.70;2.30;;;;;;;;;;5088446;28;20124;-78
2023/05/14 13:59:30;;;;;;;2.75;2.10;;;;;;;;;;5072765;28;20328;-79
2023/05/14 14:01:56;;;;;;;3.80;2.10;;;;;;;;;;5055001;28;20036;-77
2023/05/14 14:04:23;;;;;;;8.15;3.85;;;;;;;;;;5087839;28;20029;-79
2023/05/14 14:06:48;;;;;;;2.88;2.35;;;;;;;;;;5088462;28;20055;-78
2023/05/14 14:09:14;;;;;;;3.13;2.17;;;;;;;;;;5073004;28;20029;-79
2023/05/14 14:11:39;;;;;;;6.30;2.35;;;;;;;;;;5088468;28;20094;-78
2023/05/14 14:14:05;;;;;;;2.05;1.75;;;;;;;;;;5054025;28;20107;-76
2023/05/14 14:16:30;;;;;;;5.25;2.42;;;;;;;;;;5072202;28;20024;-77
2023/05/14 14:18:56;;;;;;;3.20;2.30;;;;;;;;;;5054208;28;20020;-80
2023/05/14 14:21:22;;;;;;;4.40;2.58;;;;;;;;;;5072517;28;20020;-79
2023/05/14 14:23:47;;;;;;;4.18;2.10;;;;;;;;;;5054702;28;20044;-79
2023/05/14 14:26:13;;;;;;;5.60;2.65;;;;;;;;;;5072512;28;20055;-80
2023/05/14 14:28:39;;;;;;;2.63;2.40;;;;;;;;;;5072483;28;20471;-79
2023/05/14 14:31:05;;;;;;;12.07;3.72;;;;;;;;;;5088213;28;20039;-76
2023/05/14 14:33:31;;;;;;;2.47;2.28;;;;;;;;;;5037930;28;20071;-76
2023/05/14 14:35:56;;;;;;;2.42;2.10;;;;;;;;;;5054385;28;20033;-75
2023/05/14 14:38:22;;;;;;;4.60;2.33;;;;;;;;;;5054108;28;20020;-79